Skip Navigation LinksHome page > Weather > Current weather Skip Navigation Links

Current Weather

Ben-Gurion Intl Apt, Tel Aviv, Israel

For information only: do not use for flight planning or navigation.
Latest weather
Observation time Monday, October 5, 2015 12:50 PM IDT
Local time Monday, October 5, 2015 1:07 PM IDT
Flight conditions Visual Meteorological Conditions
Wind direction Northwest (310°)
Wind speed 10 mph
Visibility 6.2 mi.
Sky condition
Ceiling unlimited
Cloud layer scattered clouds 4,000 ft.
Temperature 84°F
Dewpoint 66°F
Altimeter 29.91 in.Hg
Derived measurements
Relative humidity 55%
Heat index 87°F
Density altitude 2076 ft.
No significant changes expected in the next two hours.
METAR LLBG 050950Z 31009KT 9999 SCT040 29/19 Q1013 NOSIG


Location code

InnerDrive.Weather 4.0.5722.1 Release CLR 4.0.30319.34014
Copyright ©2015 Inner Drive Technology. All rights reserved. Portions Copyright ©1986-2015 David Braverman.

Find weather

Site navigation

Skip Navigation Links

Place info

Page info

PayPal - The safer, easier way to pay online!

Return home.

Copyright ©2015 Inner Drive Technology. Purveyors of fine, hand-crafted computer software. Page printed 2015-10-05T10:07:51 UTC.